Rindge, NH (03461)

8:28 PM EDT on May 25, 2015 (GMT -0400)
Town Pines | | Change Station
CLOSE
Current Station
Personal Weather Station
Location: Rindge, NH
Elevation: 1302 ft
Nearby Weather Stations

Elev 1302 ft 42.74 °N, 72.03 °W | Updated 1 minute ago

Partly Cloudy
Partly Cloudy
70.7 °F
Feels Like 73 °F
N
4.0
Wind Variable Wind from SSE
Gusts 4.5 mph

Today
High -- | Low -- °F
--% Chance of Precip.
Yesterday
High -- | Low -- °F
Precip. -- in
5:16 AM 8:13 PM
First Quarter, 53% visible
Pressure 30.15 in
Visibility 10.0 miles
Clouds Clear
Heat Index 73 °F
Dew Point 32 °F
Humidity 14%
Rainfall -999.00 in
Snow Depth Not available.
UV 0 out of 12
Pollen 9.40 out of 12
Air Quality Not available.
Flu Activity Sporadic
METAR KAFN 252352Z AUTO 19007KT 10SM CLR 23/13 A3014 RMK AO2 SLP209 T02330128 10261 20222 56006

More Conditions Fewer Conditions

Pressure 30.15 in
Visibility 10.0 miles
Clouds Clear
Heat Index 73 °F
Dew Point 32 °F
Humidity 14%
Rainfall -999.00 in
Snow Depth Not available.
UV 0 out of 12
Pollen 9.40 out of 12
Air Quality Not available.
Flu Activity Sporadic
METAR KAFN 252352Z AUTO 19007KT 10SM CLR 23/13 A3014 RMK AO2 SLP209 T02330128 10261 20222 56006

More Conditions Fewer Conditions

10-Day Weather Forecast

Almanac

Astronomy

May. 25, 2015 Rise Set
Actual Time
Civil Twilight
Nautical Twilight
Astronomical Twilight
Moon
Length of Visible Light
Length of Day
Tomorrow will be .
, % of the Moon is Illuminated

Today's Extremes

State Highs State Lows

Community

WunderPhotos

Upload Photos

1,824,187 photos uploaded!

WunderBlogs® & News

Nearby

Air Quality

  Air Quality AQ Index Pollutant
Not available.

Snow Depth

Station Depth Elevation

Earthquake Activity

City Distance Mag. Time & Date
Minimum magnitude displayed is 2.5.

Coastal Water Temperatures

Place Temperature

Stations

Nearby Weather Stations

Station Location Temp. Windchill Dew Point Humidity Wind Precip. Elev Updated Type